Time;durP1;ratioP1;P1;durP2;ratioP2;P2;SDS_P1;SDS_P2;PMS_P1;PMS_P2;Temp;Humidity;BMP_temperature;BMP_pressure;BME280_temperature;BME280_humidity;BME280_pressure;Samples;Min_cycle;Max_cycle;Signal;HPM_P1;HPM_P2
2022/08/30 00:03:20;;;;;;;2.33;1.10;;;15.40;99.90;;;;;;5063499;28;20211;-81
2022/08/30 00:05:48;;;;;;;3.10;1.17;;;15.40;99.90;;;;;;5063361;28;20311;-81
2022/08/30 00:08:15;;;;;;;2.10;1.10;;;15.40;99.90;;;;;;5060821;28;20227;-82
2022/08/30 00:10:42;;;;;;;1.97;1.20;;;15.40;99.90;;;;;;5068119;28;20243;-82
2022/08/30 00:13:10;;;;;;;5.37;1.20;;;15.40;99.90;;;;;;5065673;28;20244;-82
2022/08/30 00:15:38;;;;;;;2.13;1.10;;;15.40;99.90;;;;;;5060428;28;20228;-83
2022/08/30 00:18:05;;;;;;;3.80;1.10;;;15.40;99.90;;;;;;5066491;28;20211;-82
2022/08/30 00:20:35;;;;;;;2.27;1.20;;;15.40;99.90;;;;;;5065257;28;20228;-82
2022/08/30 00:23:02;;;;;;;2.07;0.93;;;15.30;99.90;;;;;;5062907;28;20218;-81
2022/08/30 00:25:29;;;;;;;1.97;1.03;;;15.30;99.90;;;;;;5066601;28;20231;-82
2022/08/30 00:27:55;;;;;;;2.03;1.20;;;15.20;99.90;;;;;;5069057;28;20225;-82
2022/08/30 00:30:22;;;;;;;3.17;1.20;;;15.20;99.90;;;;;;5059548;28;20226;-81
2022/08/30 00:32:49;;;;;;;2.03;1.10;;;15.20;99.90;;;;;;5068443;28;20227;-81
2022/08/30 00:35:19;;;;;;;2.87;1.13;;;15.10;99.90;;;;;;5065671;28;20709;-82
2022/08/30 00:37:49;;;;;;;2.90;1.13;;;15.10;99.90;;;;;;5069336;28;20539;-82
2022/08/30 00:40:19;;;;;;;4.10;1.40;;;15.10;99.90;;;;;;5065500;28;20228;-82
2022/08/30 00:42:46;;;;;;;3.40;1.43;;;15.10;99.90;;;;;;5064721;28;20222;-82
2022/08/30 00:45:17;;;;;;;3.13;1.30;;;15.00;99.90;;;;;;5066251;28;20296;-82
2022/08/30 00:47:43;;;;;;;4.33;1.33;;;15.00;99.90;;;;;;5061844;28;20233;-82
2022/08/30 00:50:12;;;;;;;1.63;1.07;;;15.00;99.90;;;;;;5059117;28;20219;-82
2022/08/30 00:52:42;;;;;;;1.43;1.20;;;15.00;99.90;;;;;;5065312;28;20232;-82
2022/08/30 00:55:12;;;;;;;1.73;0.90;;;15.00;99.90;;;;;;5062660;28;20968;-82
2022/08/30 00:57:40;;;;;;;1.97;1.10;;;14.90;99.90;;;;;;5062454;28;20284;-83
2022/08/30 01:00:08;;;;;;;3.00;1.13;;;14.90;99.90;;;;;;5064435;28;20251;-82
2022/08/30 01:02:35;;;;;;;2.37;1.10;;;14.90;99.90;;;;;;5063689;28;20307;-80
2022/08/30 01:05:03;;;;;;;2.30;1.10;;;14.90;99.90;;;;;;5065495;28;20247;-82
2022/08/30 01:07:30;;;;;;;1.73;1.03;;;14.90;99.90;;;;;;5066062;28;20231;-83
2022/08/30 01:10:00;;;;;;;3.23;1.20;;;14.80;99.90;;;;;;5058887;28;20396;-82
2022/08/30 01:12:28;;;;;;;1.97;1.10;;;14.80;99.90;;;;;;5064336;28;20232;-82
2022/08/30 01:14:56;;;;;;;4.27;1.10;;;14.80;99.90;;;;;;5062963;28;20231;-82
2022/08/30 01:17:22;;;;;;;2.50;1.10;;;14.80;99.90;;;;;;5065634;28;20227;-82
2022/08/30 01:19:53;;;;;;;4.03;1.37;;;14.80;99.90;;;;;;5068022;28;20310;-82
2022/08/30 01:22:27;;;;;;;2.00;1.13;;;14.90;99.90;;;;;;5063116;28;20602;-83
2022/08/30 01:24:58;;;;;;;3.57;1.20;;;14.80;99.90;;;;;;5062892;28;20286;-83
2022/08/30 01:27:28;;;;;;;3.60;1.20;;;14.80;99.90;;;;;;5064064;28;20227;-83
2022/08/30 01:29:56;;;;;;;3.50;1.00;;;14.80;99.90;;;;;;5068938;28;20978;-83
2022/08/30 01:32:27;;;;;;;3.93;1.30;;;14.80;99.90;;;;;;5066216;28;20640;-82
2022/08/30 01:34:55;;;;;;;3.47;1.07;;;14.80;99.90;;;;;;5067037;28;20304;-82
2022/08/30 01:37:25;;;;;;;1.67;0.87;;;14.90;99.90;;;;;;5064232;28;20226;-82
2022/08/30 01:39:51;;;;;;;2.40;1.00;;;14.80;99.90;;;;;;5063415;28;20227;-82
2022/08/30 01:42:19;;;;;;;1.30;0.97;;;14.90;99.90;;;;;;5064882;28;20692;-83
2022/08/30 01:44:47;;;;;;;3.40;1.10;;;14.90;99.90;;;;;;5061192;28;20228;-82
2022/08/30 01:47:16;;;;;;;1.97;1.20;;;14.90;99.90;;;;;;5065819;28;20312;-82
2022/08/30 01:49:43;;;;;;;1.13;1.00;;;14.90;99.90;;;;;;5061586;28;20234;-82
2022/08/30 01:52:11;;;;;;;3.03;1.07;;;14.90;99.90;;;;;;5061958;28;20529;-82
2022/08/30 01:54:40;;;;;;;3.10;1.33;;;14.90;99.90;;;;;;5066097;28;20485;-81
2022/08/30 01:57:08;;;;;;;1.80;0.97;;;14.90;99.90;;;;;;5062777;28;20309;-82
2022/08/30 01:59:38;;;;;;;2.03;1.00;;;15.00;99.90;;;;;;5062518;28;20321;-82
2022/08/30 02:02:05;;;;;;;1.63;1.00;;;15.00;99.90;;;;;;5062174;28;20217;-81
2022/08/30 02:04:33;;;;;;;1.50;1.00;;;15.00;99.90;;;;;;5060986;28;20344;-83
2022/08/30 02:07:00;;;;;;;2.47;1.30;;;15.00;99.90;;;;;;5068738;28;20225;-82
2022/08/30 02:09:26;;;;;;;2.97;1.10;;;15.00;99.90;;;;;;5064619;28;20237;-81
2022/08/30 02:11:53;;;;;;;2.63;1.00;;;15.00;99.90;;;;;;5064684;28;20222;-82
2022/08/30 02:14:20;;;;;;;2.17;1.30;;;15.10;99.90;;;;;;5066286;28;20288;-83
2022/08/30 02:16:48;;;;;;;2.53;0.93;;;15.10;99.90;;;;;;5067104;28;20230;-81
2022/08/30 02:19:15;;;;;;;3.23;1.03;;;15.10;99.90;;;;;;5065432;28;20238;-81
2022/08/30 02:21:41;;;;;;;3.83;1.57;;;15.00;99.90;;;;;;5065663;28;20337;-81
2022/08/30 02:24:08;;;;;;;2.67;1.10;;;15.10;99.90;;;;;;5064983;28;20310;-81
2022/08/30 02:26:35;;;;;;;3.50;1.10;;;15.10;99.90;;;;;;5066354;28;20221;-81
2022/08/30 02:29:04;;;;;;;2.57;1.00;;;15.00;99.90;;;;;;5063950;28;20740;-81
2022/08/30 02:31:31;;;;;;;1.93;1.00;;;15.10;99.90;;;;;;5060530;28;20228;-81
2022/08/30 02:33:59;;;;;;;2.20;1.00;;;15.00;99.90;;;;;;5060627;28;20233;-83
2022/08/30 02:36:25;;;;;;;3.50;1.10;;;15.10;99.90;;;;;;5061550;28;20316;-81
2022/08/30 02:38:52;;;;;;;1.77;1.00;;;15.10;99.90;;;;;;5062821;28;20599;-83
2022/08/30 02:41:22;;;;;;;2.23;0.90;;;15.00;99.90;;;;;;5063467;28;20687;-81
2022/08/30 02:43:49;;;;;;;2.10;1.10;;;15.00;99.90;;;;;;5062416;28;20251;-82
2022/08/30 02:46:16;;;;;;;3.50;1.40;;;15.10;99.90;;;;;;5062600;28;20229;-82
2022/08/30 02:48:43;;;;;;;1.93;1.13;;;15.00;99.90;;;;;;5060803;28;20278;-81
2022/08/30 02:51:13;;;;;;;1.70;0.93;;;15.00;99.90;;;;;;5060905;28;20217;-81
2022/08/30 02:53:40;;;;;;;2.23;1.07;;;15.00;99.90;;;;;;5058754;28;20217;-80
2022/08/30 02:56:08;;;;;;;2.40;1.23;;;15.10;99.90;;;;;;5057984;28;20313;-82
2022/08/30 02:58:35;;;;;;;1.60;1.10;;;15.10;99.90;;;;;;5057879;28;20227;-81
2022/08/30 03:01:02;;;;;;;3.60;1.20;;;15.10;99.90;;;;;;5067092;28;20225;-81
2022/08/30 03:03:28;;;;;;;1.60;0.90;;;15.10;99.90;;;;;;5060654;28;20237;-81
2022/08/30 03:05:55;;;;;;;4.03;1.10;;;15.10;99.90;;;;;;5058387;28;20235;-81
2022/08/30 03:08:23;;;;;;;3.03;1.10;;;15.10;99.90;;;;;;5057275;28;20719;-80
2022/08/30 03:10:50;;;;;;;1.30;0.80;;;15.10;99.90;;;;;;5053779;28;20225;-82
2022/08/30 03:13:17;;;;;;;2.07;1.03;;;15.10;99.90;;;;;;5060342;28;20229;-84
2022/08/30 03:15:44;;;;;;;1.30;1.00;;;15.10;99.90;;;;;;5066602;28;20310;-83
2022/08/30 03:18:10;;;;;;;2.90;1.07;;;15.10;99.90;;;;;;5069254;28;20209;-83
2022/08/30 03:20:38;;;;;;;1.70;1.10;;;15.20;99.90;;;;;;5066468;28;20236;-82
2022/08/30 03:23:04;;;;;;;2.30;1.00;;;15.10;99.90;;;;;;5064858;28;20240;-82
2022/08/30 03:25:33;;;;;;;2.90;1.13;;;15.10;99.90;;;;;;5064544;28;20237;-81
2022/08/30 03:28:00;;;;;;;1.83;1.00;;;15.10;99.90;;;;;;5082166;28;20273;-81
2022/08/30 03:30:27;;;;;;;1.30;1.10;;;15.10;99.90;;;;;;5064765;28;20229;-82
2022/08/30 03:32:53;;;;;;;4.10;1.27;;;15.10;99.90;;;;;;5062990;28;20953;-83
2022/08/30 03:35:20;;;;;;;2.03;1.00;;;15.10;99.90;;;;;;5066922;28;20491;-82
2022/08/30 03:37:48;;;;;;;2.60;1.20;;;15.10;99.90;;;;;;5066615;28;20316;-82
2022/08/30 03:40:17;;;;;;;5.40;1.10;;;15.10;99.90;;;;;;5064215;28;20217;-81
2022/08/30 03:42:45;;;;;;;1.83;1.00;;;15.10;99.90;;;;;;5064175;28;20305;-81
2022/08/30 03:45:14;;;;;;;3.57;1.13;;;15.10;99.90;;;;;;5067918;28;20218;-82
2022/08/30 03:47:41;;;;;;;3.17;0.97;;;15.10;99.90;;;;;;5064022;28;20226;-82
2022/08/30 03:50:08;;;;;;;6.07;1.30;;;15.10;99.90;;;;;;5064106;28;20228;-81
2022/08/30 03:52:35;;;;;;;2.00;1.37;;;15.00;99.90;;;;;;5066062;28;20217;-82
2022/08/30 03:55:01;;;;;;;2.70;1.23;;;15.00;99.90;;;;;;5065005;28;20233;-82
2022/08/30 03:57:28;;;;;;;2.50;1.10;;;15.00;99.90;;;;;;5060605;28;20228;-82
2022/08/30 03:59:56;;;;;;;2.33;1.27;;;15.00;99.90;;;;;;5064266;28;20521;-81
2022/08/30 04:02:23;;;;;;;2.67;1.20;;;15.00;99.90;;;;;;5048660;28;20249;-80
2022/08/30 04:04:50;;;;;;;1.40;1.10;;;15.00;99.90;;;;;;5062025;28;20314;-83
2022/08/30 04:07:17;;;;;;;2.60;1.10;;;15.00;99.90;;;;;;5068352;28;20225;-82
2022/08/30 04:09:44;;;;;;;2.63;1.10;;;15.00;99.90;;;;;;5065507;28;20221;-81
2022/08/30 04:12:11;;;;;;;2.53;1.50;;;14.90;99.90;;;;;;5064317;28;20227;-81
2022/08/30 04:14:37;;;;;;;4.00;1.20;;;14.90;99.90;;;;;;5073530;28;20221;-82
2022/08/30 04:17:06;;;;;;;4.33;1.40;;;14.90;99.90;;;;;;5065701;28;20705;-81
2022/08/30 04:19:32;;;;;;;2.73;1.10;;;14.90;99.90;;;;;;5065750;28;20223;-83
2022/08/30 04:21:59;;;;;;;2.93;1.00;;;14.90;99.90;;;;;;5063718;28;20737;-81
2022/08/30 04:24:29;;;;;;;2.07;1.00;;;14.90;99.90;;;;;;5064538;28;20699;-82
2022/08/30 04:26:55;;;;;;;2.10;0.90;;;14.90;99.90;;;;;;5059305;28;20221;-81
2022/08/30 04:29:22;;;;;;;2.10;1.30;;;14.90;99.90;;;;;;5057026;28;20237;-82
2022/08/30 04:31:49;;;;;;;2.20;1.30;;;14.90;99.90;;;;;;5064547;28;20667;-81
2022/08/30 04:34:17;;;;;;;1.90;1.10;;;14.90;99.90;;;;;;5069365;28;20305;-82
2022/08/30 04:36:44;;;;;;;5.67;1.27;;;14.90;99.90;;;;;;5065089;28;20226;-80
2022/08/30 04:39:10;;;;;;;2.73;1.43;;;14.90;99.90;;;;;;5062335;28;20216;-80
2022/08/30 04:41:39;;;;;;;2.83;1.60;;;14.90;99.90;;;;;;5059725;28;20225;-81
2022/08/30 04:44:06;;;;;;;4.77;1.13;;;14.90;99.90;;;;;;5063125;28;20269;-80
2022/08/30 04:46:34;;;;;;;2.37;1.10;;;14.90;99.90;;;;;;5063451;28;20218;-81
2022/08/30 04:49:01;;;;;;;1.87;1.10;;;14.90;99.90;;;;;;5065011;28;20230;-80
2022/08/30 04:51:29;;;;;;;2.90;1.10;;;14.90;99.90;;;;;;5059183;28;20221;-80
2022/08/30 04:53:56;;;;;;;3.87;1.30;;;14.80;99.90;;;;;;5065486;28;20308;-80
2022/08/30 04:56:24;;;;;;;2.63;1.20;;;14.90;99.90;;;;;;5061534;28;20228;-81
2022/08/30 04:58:52;;;;;;;1.67;1.30;;;14.80;99.90;;;;;;5061807;28;20229;-81
2022/08/30 05:01:22;;;;;;;2.50;1.33;;;14.90;99.90;;;;;;5060073;28;20232;-82
2022/08/30 05:03:49;;;;;;;2.43;1.13;;;14.80;99.90;;;;;;5064949;28;22345;-80
2022/08/30 05:06:16;;;;;;;3.57;1.57;;;14.80;99.90;;;;;;5062538;28;20220;-81
2022/08/30 05:08:45;;;;;;;3.60;1.20;;;14.90;99.90;;;;;;5058258;28;20220;-81
2022/08/30 05:11:12;;;;;;;2.07;1.23;;;14.90;99.90;;;;;;5059448;28;20561;-81
2022/08/30 05:13:38;;;;;;;1.90;1.20;;;14.90;99.90;;;;;;5060663;28;20226;-83
2022/08/30 05:16:07;;;;;;;2.40;1.33;;;14.90;99.90;;;;;;5065612;28;20228;-82
2022/08/30 05:18:34;;;;;;;3.83;1.50;;;14.90;99.90;;;;;;5072142;28;20328;-82
2022/08/30 05:21:07;;;;;;;3.00;1.40;;;14.90;99.90;;;;;;5072394;28;20229;-81
2022/08/30 05:23:34;;;;;;;2.63;1.30;;;14.90;99.90;;;;;;5063478;28;20225;-82
2022/08/30 05:26:06;;;;;;;2.23;1.00;;;14.90;99.90;;;;;;5066742;28;20232;-83
2022/08/30 05:28:33;;;;;;;2.33;1.30;;;14.90;99.90;;;;;;5071581;28;20224;-82
2022/08/30 05:31:00;;;;;;;2.30;1.20;;;15.00;99.90;;;;;;5083386;28;20657;-81
2022/08/30 05:33:30;;;;;;;1.53;1.20;;;15.00;99.90;;;;;;5070782;28;20217;-82
2022/08/30 05:35:57;;;;;;;1.70;1.10;;;15.00;99.90;;;;;;5072747;28;20248;-82
2022/08/30 05:38:24;;;;;;;3.13;1.37;;;15.10;99.90;;;;;;5076178;28;20657;-82
2022/08/30 05:40:50;;;;;;;1.50;1.10;;;15.10;99.90;;;;;;5072148;28;20282;-81
2022/08/30 05:43:18;;;;;;;2.00;1.20;;;15.10;99.90;;;;;;5072157;28;20217;-82
2022/08/30 05:45:45;;;;;;;1.50;1.07;;;15.20;99.90;;;;;;5074113;28;20260;-82
2022/08/30 05:48:11;;;;;;;5.47;1.63;;;15.20;99.90;;;;;;5069238;28;20311;-82
2022/08/30 05:50:38;;;;;;;2.53;1.50;;;15.20;99.90;;;;;;5074166;28;20226;-82
2022/08/30 05:53:05;;;;;;;1.97;1.10;;;15.30;99.90;;;;;;5066552;28;20252;-81
2022/08/30 05:55:31;;;;;;;1.43;1.10;;;15.30;99.90;;;;;;5070716;28;20308;-82
2022/08/30 05:57:59;;;;;;;2.83;1.17;;;15.30;99.90;;;;;;5065840;28;20240;-82
2022/08/30 06:00:29;;;;;;;2.40;1.20;;;15.40;99.90;;;;;;5065822;28;20231;-82
2022/08/30 06:02:55;;;;;;;3.47;1.60;;;15.40;99.90;;;;;;5067152;28;20213;-82
2022/08/30 06:05:24;;;;;;;4.27;1.70;;;15.50;99.90;;;;;;5075865;28;20312;-81
2022/08/30 06:07:54;;;;;;;3.43;1.40;;;15.50;99.90;;;;;;5074312;28;20551;-82
2022/08/30 06:10:20;;;;;;;4.93;1.20;;;15.60;99.90;;;;;;5069869;28;20304;-82
2022/08/30 06:12:47;;;;;;;4.03;1.33;;;15.70;99.90;;;;;;5077252;28;20231;-82
2022/08/30 06:15:14;;;;;;;3.13;1.30;;;15.70;99.90;;;;;;5062686;28;20295;-82
2022/08/30 06:17:42;;;;;;;2.07;1.23;;;15.80;99.90;;;;;;5070980;28;20285;-82
2022/08/30 06:20:09;;;;;;;4.10;1.40;;;15.80;99.90;;;;;;5070553;28;20232;-82
2022/08/30 06:22:37;;;;;;;3.47;1.33;;;15.80;99.90;;;;;;5068560;28;20226;-82
2022/08/30 06:25:05;;;;;;;3.00;1.33;;;15.90;99.90;;;;;;5068754;28;20785;-81
2022/08/30 06:27:31;;;;;;;2.10;1.13;;;16.00;99.90;;;;;;5069667;28;20328;-82
2022/08/30 06:29:58;;;;;;;2.33;1.00;;;16.10;99.90;;;;;;5076833;28;20319;-82
2022/08/30 06:32:25;;;;;;;2.77;1.10;;;16.20;99.90;;;;;;5067634;28;20914;-82
2022/08/30 06:34:53;;;;;;;1.60;1.23;;;16.30;99.90;;;;;;5067881;28;20242;-82
2022/08/30 06:37:19;;;;;;;4.10;1.40;;;16.40;99.90;;;;;;5066799;28;20227;-82
2022/08/30 06:39:46;;;;;;;3.67;1.07;;;16.40;99.90;;;;;;5065222;28;20234;-81
2022/08/30 06:42:13;;;;;;;1.63;1.20;;;16.50;99.90;;;;;;5067544;28;20221;-81
2022/08/30 06:44:39;;;;;;;2.00;1.30;;;16.60;99.90;;;;;;5064374;28;20227;-80
2022/08/30 06:47:06;;;;;;;3.43;1.07;;;16.70;99.90;;;;;;5065430;28;20221;-81
2022/08/30 06:49:33;;;;;;;4.80;1.50;;;16.70;99.90;;;;;;5067248;28;20309;-82
2022/08/30 06:52:01;;;;;;;1.70;1.10;;;16.80;99.90;;;;;;5070080;28;20710;-81
2022/08/30 06:54:28;;;;;;;1.40;1.20;;;16.90;99.90;;;;;;5062965;28;20229;-82
2022/08/30 06:56:55;;;;;;;1.70;1.30;;;17.00;99.90;;;;;;5058583;28;20802;-82
2022/08/30 06:59:22;;;;;;;3.67;1.17;;;17.00;99.90;;;;;;5064078;28;20225;-82
2022/08/30 07:01:48;;;;;;;2.17;1.00;;;17.00;99.90;;;;;;5060588;28;20229;-82
2022/08/30 07:04:15;;;;;;;5.80;1.50;;;17.10;99.90;;;;;;5058908;28;20318;-82
2022/08/30 07:06:42;;;;;;;3.17;1.20;;;17.20;99.90;;;;;;5055571;28;20745;-82
2022/08/30 07:09:10;;;;;;;2.50;1.10;;;17.20;99.90;;;;;;5056996;28;20578;-82
2022/08/30 07:11:39;;;;;;;3.50;1.10;;;17.20;99.90;;;;;;5071724;28;20222;-82
2022/08/30 07:14:06;;;;;;;2.87;1.17;;;17.30;99.90;;;;;;5055317;28;20775;-83
2022/08/30 07:16:33;;;;;;;2.70;1.37;;;17.30;99.90;;;;;;5058879;28;20252;-83
2022/08/30 07:19:00;;;;;;;1.83;1.00;;;17.30;99.90;;;;;;5062266;28;20221;-82
2022/08/30 07:21:29;;;;;;;2.10;1.30;;;17.40;99.90;;;;;;5066292;28;20287;-81
2022/08/30 07:23:58;;;;;;;1.47;1.20;;;17.40;99.90;;;;;;5063806;28;20222;-82
2022/08/30 07:26:29;;;;;;;2.33;1.10;;;17.50;99.90;;;;;;5060812;28;20218;-82
2022/08/30 07:28:56;;;;;;;2.03;1.30;;;17.60;99.90;;;;;;5057687;28;20222;-82
2022/08/30 07:31:23;;;;;;;2.03;1.20;;;17.70;99.90;;;;;;5059121;28;20217;-82
2022/08/30 07:33:50;;;;;;;4.30;1.30;;;17.80;99.90;;;;;;5059395;28;20233;-83
2022/08/30 07:36:20;;;;;;;2.30;1.40;;;17.90;99.90;;;;;;5067273;28;20234;-82
2022/08/30 07:38:47;;;;;;;2.87;1.00;;;18.00;99.90;;;;;;5060151;28;20228;-82
2022/08/30 07:41:19;;;;;;;2.87;1.47;;;18.10;99.90;;;;;;5056400;28;20218;-82
2022/08/30 07:43:47;;;;;;;1.50;1.10;;;18.10;99.90;;;;;;5068340;28;20230;-82
2022/08/30 07:46:17;;;;;;;2.90;1.30;;;18.20;99.90;;;;;;5058382;28;20675;-82
2022/08/30 07:48:44;;;;;;;1.83;1.10;;;18.20;99.90;;;;;;5057781;28;20231;-81
2022/08/30 07:51:13;;;;;;;3.43;1.40;;;18.20;99.90;;;;;;5066462;28;20219;-82
2022/08/30 07:53:40;;;;;;;2.60;1.30;;;18.20;99.90;;;;;;5061416;28;20227;-82
2022/08/30 07:56:07;;;;;;;1.70;0.90;;;18.30;99.90;;;;;;5063527;28;20216;-82
2022/08/30 07:58:40;;;;;;;1.43;1.00;;;18.40;99.90;;;;;;5058841;28;20294;-82
2022/08/30 08:01:09;;;;;;;1.80;1.10;;;18.50;99.90;;;;;;5065619;28;20667;-82
2022/08/30 08:03:38;;;;;;;2.27;1.03;;;18.70;99.90;;;;;;5067915;28;20649;-82
2022/08/30 08:06:06;;;;;;;2.00;0.90;;;18.70;99.90;;;;;;5068908;28;20306;-82
2022/08/30 08:08:34;;;;;;;1.30;0.83;;;18.80;99.90;;;;;;5061691;28;20223;-82
2022/08/30 08:11:06;;;;;;;1.37;1.00;;;18.90;99.90;;;;;;5067711;28;20295;-82
2022/08/30 08:13:33;;;;;;;1.07;0.83;;;18.90;99.90;;;;;;5063371;28;20231;-82
2022/08/30 08:16:00;;;;;;;2.20;0.90;;;19.00;99.90;;;;;;5068040;28;20234;-82
2022/08/30 08:18:28;;;;;;;1.40;0.80;;;19.10;99.90;;;;;;5071235;28;20219;-82
2022/08/30 08:20:57;;;;;;;2.90;0.83;;;19.30;99.90;;;;;;5067132;28;20222;-82
2022/08/30 08:23:24;;;;;;;1.30;0.80;;;19.50;99.90;;;;;;5066013;28;20255;-82
2022/08/30 08:25:51;;;;;;;2.70;1.00;;;19.60;99.90;;;;;;5067576;28;20991;-82
2022/08/30 08:28:18;;;;;;;1.13;0.77;;;19.80;99.90;;;;;;5066608;28;20359;-82
2022/08/30 08:30:45;;;;;;;1.95;0.70;;;20.00;99.90;;;;;;5069754;28;20385;-82
2022/08/30 08:33:13;;;;;;;1.42;0.80;;;20.10;99.90;;;;;;5066893;28;20543;-82
2022/08/30 08:35:41;;;;;;;1.10;0.70;;;20.30;99.90;;;;;;5071007;28;20219;-82
2022/08/30 08:38:08;;;;;;;2.38;1.08;;;20.50;99.90;;;;;;5064738;28;20216;-82
2022/08/30 08:40:48;;;;;;;1.55;0.80;;;20.70;99.90;;;;;;5067811;28;20869;-82
2022/08/30 08:43:17;;;;;;;1.50;0.77;;;20.80;99.90;;;;;;5066907;28;20229;-82
2022/08/30 08:45:54;;;;;;;1.23;0.70;;;21.00;99.90;;;;;;5066179;28;20258;-82
2022/08/30 08:48:29;;;;;;;1.30;0.80;;;21.10;99.90;;;;;;5068252;28;20246;-81
2022/08/30 08:53:47;;;;;;;2.45;1.00;;;21.40;99.50;;;;;;5066235;28;20227;-82
2022/08/30 08:56:17;;;;;;;1.40;0.82;;;21.50;99.40;;;;;;5072395;28;20527;-83
2022/08/30 08:58:46;;;;;;;1.38;0.68;;;21.50;99.20;;;;;;5062529;28;20223;-82
2022/08/30 09:01:15;;;;;;;2.30;0.82;;;21.60;99.20;;;;;;5069554;28;20306;-82
2022/08/30 09:03:43;;;;;;;2.45;1.10;;;21.70;98.90;;;;;;5075120;28;20295;-82
2022/08/30 09:06:27;;;;;;;0.95;0.80;;;21.70;98.70;;;;;;5063265;28;20227;-82
2022/08/30 09:08:54;;;;;;;2.08;0.77;;;21.70;98.00;;;;;;5076747;28;20230;-83
2022/08/30 09:11:23;;;;;;;0.90;0.65;;;21.60;98.30;;;;;;5070554;28;20219;-82
2022/08/30 09:13:50;;;;;;;1.50;0.80;;;21.50;98.20;;;;;;5067672;28;20219;-82
2022/08/30 09:16:51;;;;;;;2.00;0.73;;;21.40;98.30;;;;;;5064911;28;20289;-83
2022/08/30 09:19:38;;;;;;;2.70;0.80;;;21.40;98.20;;;;;;5064766;28;20221;-83
2022/08/30 09:22:16;;;;;;;2.63;1.00;;;21.40;98.00;;;;;;5065900;28;20271;-82
2022/08/30 09:24:44;;;;;;;1.98;0.73;;;21.30;97.80;;;;;;5064803;28;20703;-82
2022/08/30 09:27:25;;;;;;;3.53;1.15;;;21.20;98.10;;;;;;5064491;28;20223;-83
2022/08/30 09:29:55;;;;;;;2.13;0.60;;;21.10;98.00;;;;;;5079850;28;20245;-83
2022/08/30 09:32:36;;;;;;;2.65;0.90;;;21.00;98.20;;;;;;5060171;28;20227;-81
2022/08/30 09:35:07;;;;;;;4.20;1.02;;;21.00;98.20;;;;;;5063777;28;20262;-82
2022/08/30 09:37:44;;;;;;;2.75;0.82;;;21.00;98.50;;;;;;5068986;28;20273;-82
2022/08/30 09:40:14;;;;;;;1.33;0.93;;;21.10;98.40;;;;;;5059089;28;20310;-83
2022/08/30 09:42:42;;;;;;;0.90;0.70;;;21.20;98.30;;;;;;5064212;28;20239;-83
2022/08/30 09:45:30;;;;;;;1.38;0.82;;;21.30;98.50;;;;;;5076504;28;20226;-85
2022/08/30 09:47:59;;;;;;;1.67;0.75;;;21.50;98.10;;;;;;5064537;28;20220;-84
2022/08/30 09:50:32;;;;;;;2.25;0.80;;;21.60;98.30;;;;;;5071968;28;20254;-83
2022/08/30 09:53:09;;;;;;;1.70;0.98;;;21.90;97.90;;;;;;5058165;28;20268;-83
2022/08/30 09:55:55;;;;;;;1.85;0.98;;;22.10;97.40;;;;;;5067194;28;20223;-84
2022/08/30 09:58:35;;;;;;;1.02;0.60;;;22.20;97.00;;;;;;5057873;28;20288;-84
2022/08/30 10:01:10;;;;;;;1.10;0.80;;;22.40;95.40;;;;;;5059184;28;20233;-83
2022/08/30 10:03:42;;;;;;;1.10;0.80;;;22.50;95.40;;;;;;5058659;28;20215;-83
2022/08/30 10:06:18;;;;;;;0.90;0.65;;;22.50;95.20;;;;;;5060663;28;21086;-83
2022/08/30 10:08:58;;;;;;;0.80;0.60;;;22.60;94.70;;;;;;5066323;28;20234;-83
2022/08/30 10:11:31;;;;;;;3.08;0.93;;;22.70;94.60;;;;;;5063508;28;20303;-83
2022/08/30 10:14:12;;;;;;;2.35;0.98;;;22.70;94.20;;;;;;5057757;28;20226;-82
2022/08/30 10:16:49;;;;;;;1.13;1.00;;;22.90;93.90;;;;;;5068635;28;20314;-83
2022/08/30 10:19:28;;;;;;;1.25;0.85;;;23.00;93.60;;;;;;5068986;28;20239;-83
2022/08/30 10:21:59;;;;;;;1.13;0.90;;;23.10;94.00;;;;;;5064073;28;20223;-83
2022/08/30 10:24:31;;;;;;;1.52;0.90;;;23.30;93.50;;;;;;5068449;28;20270;-83
2022/08/30 10:27:05;;;;;;;1.00;0.90;;;23.40;93.00;;;;;;5061041;28;20222;-83
2022/08/30 10:29:36;;;;;;;3.15;0.88;;;23.50;92.70;;;;;;5062319;28;20225;-83
2022/08/30 10:32:10;;;;;;;1.20;0.85;;;23.70;92.70;;;;;;5068550;28;20229;-83
2022/08/30 10:34:41;;;;;;;2.15;0.70;;;23.70;92.30;;;;;;5056564;28;20210;-83
2022/08/30 10:37:12;;;;;;;1.27;0.77;;;23.80;92.00;;;;;;5065064;28;20226;-83
2022/08/30 10:39:45;;;;;;;2.05;1.10;;;24.00;92.10;;;;;;5080627;28;20699;-83
2022/08/30 10:42:19;;;;;;;1.20;0.80;;;24.20;91.60;;;;;;5074528;28;20304;-83
2022/08/30 10:44:52;;;;;;;2.13;1.10;;;24.40;91.10;;;;;;5060615;28;20230;-84
2022/08/30 10:47:29;;;;;;;1.65;1.00;;;24.70;91.00;;;;;;5063830;28;20223;-83
2022/08/30 10:50:03;;;;;;;0.80;0.73;;;24.90;90.30;;;;;;5071578;28;20273;-83
2022/08/30 10:52:36;;;;;;;1.33;0.88;;;25.10;90.00;;;;;;5063853;28;20257;-83
2022/08/30 10:55:08;;;;;;;2.35;0.98;;;25.30;90.10;;;;;;5059996;28;20889;-83
2022/08/30 10:57:35;;;;;;;2.53;0.88;;;25.50;90.20;;;;;;5062525;28;20231;-83
2022/08/30 11:00:09;;;;;;;1.10;0.90;;;25.60;90.50;;;;;;5070089;28;20234;-83
2022/08/30 11:03:18;;;;;;;1.85;0.82;;;25.80;90.20;;;;;;5056540;28;20315;-83
2022/08/30 11:06:05;;;;;;;2.03;1.20;;;26.00;90.30;;;;;;5067739;28;20327;-83
2022/08/30 11:08:48;;;;;;;2.15;1.10;;;26.00;90.00;;;;;;5070116;28;20234;-82
2022/08/30 11:11:29;;;;;;;2.13;0.90;;;26.00;88.50;;;;;;5068241;28;20639;-83
2022/08/30 11:13:57;;;;;;;1.13;0.75;;;25.80;88.20;;;;;;5075635;28;20252;-83
2022/08/30 11:16:35;;;;;;;3.35;1.08;;;25.70;89.00;;;;;;5062131;28;20255;-84
2022/08/30 11:19:02;;;;;;;2.28;0.93;;;25.50;88.50;;;;;;5075486;28;20219;-83
2022/08/30 11:21:33;;;;;;;1.20;0.80;;;25.40;89.00;;;;;;5067902;28;20250;-83
2022/08/30 11:24:08;;;;;;;3.70;1.17;;;25.20;88.50;;;;;;5071069;28;20219;-83
2022/08/30 11:26:58;;;;;;;1.58;0.90;;;25.10;87.90;;;;;;5074966;28;20226;-83
2022/08/30 11:29:43;;;;;;;2.05;0.98;;;25.00;88.90;;;;;;5065904;28;20251;-84
2022/08/30 11:32:25;;;;;;;2.55;0.80;;;25.00;88.90;;;;;;5071227;28;20222;-83
2022/08/30 11:34:57;;;;;;;1.88;0.82;;;24.90;86.60;;;;;;5076404;28;20227;-83
2022/08/30 11:37:35;;;;;;;2.25;0.95;;;24.90;87.80;;;;;;5072424;28;20231;-83
2022/08/30 11:40:04;;;;;;;1.52;0.70;;;24.90;88.20;;;;;;5080452;28;20211;-83
2022/08/30 11:42:42;;;;;;;1.65;0.70;;;25.00;88.50;;;;;;5067870;28;20226;-83
2022/08/30 11:45:50;;;;;;;2.00;1.10;;;25.20;88.50;;;;;;5074981;28;20686;-83
2022/08/30 11:48:44;;;;;;;2.20;0.95;;;25.40;87.60;;;;;;5073127;28;20290;-84
2022/08/30 11:51:26;;;;;;;1.52;0.80;;;25.60;87.10;;;;;;5074649;28;20327;-84
2022/08/30 11:54:01;;;;;;;3.60;1.00;;;25.70;86.00;;;;;;5065350;28;20235;-83
2022/08/30 11:56:33;;;;;;;1.05;0.82;;;25.90;85.50;;;;;;5072591;28;20320;-83
2022/08/30 11:59:07;;;;;;;1.55;0.73;;;26.10;85.50;;;;;;5063028;28;20322;-83
2022/08/30 12:01:36;;;;;;;1.15;0.80;;;26.30;84.40;;;;;;5065965;28;20228;-84
2022/08/30 12:04:09;;;;;;;1.70;0.60;;;26.50;84.60;;;;;;5069412;28;20238;-84
2022/08/30 12:06:50;;;;;;;2.03;0.90;;;26.60;83.30;;;;;;5076161;28;20222;-84
2022/08/30 12:10:02;;;;;;;0.93;0.70;;;26.90;82.40;;;;;;5075011;28;20223;-83
2022/08/30 12:12:59;;;;;;;2.22;0.85;;;27.10;82.00;;;;;;5074667;28;20215;-84
2022/08/30 12:15:59;;;;;;;1.73;0.95;;;27.20;80.70;;;;;;5070872;28;20220;-84
2022/08/30 12:18:31;;;;;;;2.13;0.90;;;27.20;80.20;;;;;;5072036;28;20238;-83
2022/08/30 12:21:04;;;;;;;1.50;0.75;;;27.20;79.40;;;;;;5077777;28;20218;-83
2022/08/30 12:23:41;;;;;;;1.50;0.85;;;27.30;79.30;;;;;;5079164;28;20322;-84
2022/08/30 12:26:14;;;;;;;2.30;0.73;;;27.40;79.40;;;;;;5071443;28;20305;-84
2022/08/30 12:28:44;;;;;;;0.80;0.77;;;27.70;78.00;;;;;;5082636;28;20219;-84
2022/08/30 12:31:14;;;;;;;2.45;0.80;;;27.80;77.70;;;;;;5061856;28;20210;-84
2022/08/30 12:33:45;;;;;;;1.65;0.80;;;28.00;77.00;;;;;;5074321;28;20207;-84
2022/08/30 12:36:14;;;;;;;1.65;0.70;;;28.20;76.90;;;;;;5068016;28;20293;-85
2022/08/30 12:38:41;;;;;;;4.15;0.82;;;28.40;76.20;;;;;;5073709;28;20228;-85
2022/08/30 12:41:08;;;;;;;1.58;0.88;;;28.60;74.90;;;;;;5070926;28;20819;-84
2022/08/30 12:43:38;;;;;;;1.17;0.80;;;28.60;73.10;;;;;;5071722;28;20234;-84
2022/08/30 12:46:08;;;;;;;3.53;0.90;;;28.40;72.90;;;;;;5067206;28;20223;-83
2022/08/30 12:48:38;;;;;;;1.40;0.70;;;28.20;72.10;;;;;;5079365;28;20962;-84
2022/08/30 12:51:09;;;;;;;1.77;0.80;;;27.80;70.60;;;;;;5068447;28;20827;-84
2022/08/30 12:53:40;;;;;;;2.67;0.70;;;27.40;71.70;;;;;;5070073;28;20227;-83
2022/08/30 12:56:09;;;;;;;1.25;0.60;;;27.10;72.30;;;;;;5076089;28;20287;-85
2022/08/30 12:58:43;;;;;;;1.13;0.80;;;26.80;72.20;;;;;;5069920;28;20327;-84
2022/08/30 13:01:26;;;;;;;4.65;0.88;;;26.70;72.80;;;;;;5070262;28;20226;-83
2022/08/30 13:03:59;;;;;;;1.23;0.70;;;26.60;73.00;;;;;;5064095;28;20312;-83
2022/08/30 13:06:50;;;;;;;3.30;0.80;;;26.60;73.10;;;;;;5075187;28;20266;-84
2022/08/30 13:09:26;;;;;;;0.90;0.60;;;26.60;73.90;;;;;;5068533;28;20418;-84